Time;durP1;ratioP1;P1;durP2;ratioP2;P2;SDS_P1;SDS_P2;PMS_P1;PMS_P2;Temp;Humidity;BMP_temperature;BMP_pressure;BME280_temperature;BME280_humidity;BME280_pressure;Samples;Min_cycle;Max_cycle;Signal;HPM_P1;HPM_P2
2022/01/25 00:08:28;;;;;;;2.60;2.37;;;7.20;99.90;;;;;;5084791;28;20199;-55
2022/01/25 00:27:40;;;;;;;5.97;2.37;;;7.10;99.90;;;;;;5075067;28;20326;-56
2022/01/25 00:30:24;;;;;;;3.30;2.20;;;7.10;99.90;;;;;;5084031;28;20566;-59
2022/01/25 00:32:51;;;;;;;2.40;2.00;;;7.00;99.90;;;;;;5081840;28;20195;-59
2022/01/25 00:35:19;;;;;;;2.07;1.77;;;7.10;99.90;;;;;;5084617;28;20260;-59
2022/01/25 00:37:47;;;;;;;1.70;1.60;;;7.00;99.90;;;;;;5084592;28;20814;-59
2022/01/25 00:40:14;;;;;;;1.27;1.17;;;7.10;99.90;;;;;;5082419;28;20671;-58
2022/01/25 00:42:42;;;;;;;1.07;1.07;;;7.10;99.90;;;;;;5078495;28;20585;-58
2022/01/25 00:45:11;;;;;;;1.60;1.50;;;7.10;99.90;;;;;;5079290;28;20261;-58
2022/01/25 00:47:41;;;;;;;2.20;2.10;;;7.20;99.90;;;;;;5078199;28;20318;-58
2022/01/25 00:50:14;;;;;;;2.30;2.10;;;7.20;99.90;;;;;;5082589;28;20693;-57
2022/01/25 00:55:35;;;;;;;2.40;2.20;;;7.20;99.90;;;;;;5012196;28;20371;-59
2022/01/25 00:58:03;;;;;;;1.83;1.70;;;7.20;99.90;;;;;;5081236;28;20234;-58
2022/01/25 01:00:30;;;;;;;2.40;1.83;;;7.10;99.90;;;;;;5081895;28;20212;-57
2022/01/25 01:02:57;;;;;;;2.40;2.20;;;7.10;99.90;;;;;;5079279;28;20195;-59
2022/01/25 01:05:25;;;;;;;3.23;1.90;;;7.20;99.90;;;;;;5067445;28;20547;-57
2022/01/25 01:07:53;;;;;;;2.87;2.37;;;7.20;99.90;;;;;;5061372;28;20207;-57
2022/01/25 01:10:23;;;;;;;2.23;2.03;;;7.20;99.90;;;;;;5071119;28;20208;-59
2022/01/25 01:15:53;;;;;;;2.13;1.70;;;7.20;99.90;;;;;;5033257;28;20222;-59
2022/01/25 01:29:29;;;;;;;1.90;1.80;;;7.20;99.90;;;;;;5076403;28;20652;-59
2022/01/25 01:32:16;;;;;;;3.37;2.83;;;7.20;99.90;;;;;;5080141;28;20221;-59
2022/01/25 01:37:54;;;;;;;3.97;3.30;;;7.20;99.90;;;;;;5065451;28;20747;-59
2022/01/25 01:40:45;;;;;;;3.80;2.73;;;7.10;99.90;;;;;;5080767;28;20356;-57
2022/01/25 01:43:24;;;;;;;2.63;2.40;;;7.10;99.90;;;;;;5077874;28;20201;-58
2022/01/25 01:45:59;;;;;;;4.03;3.03;;;7.10;99.90;;;;;;5080020;28;20208;-59
2022/01/25 01:48:30;;;;;;;2.80;2.57;;;7.10;99.90;;;;;;5075885;28;20198;-58
2022/01/25 01:51:04;;;;;;;3.03;2.73;;;7.10;99.90;;;;;;5067724;28;20565;-57
2022/01/25 01:53:31;;;;;;;3.43;2.70;;;7.10;99.90;;;;;;5079491;28;20189;-58
2022/01/25 01:55:58;;;;;;;2.63;2.37;;;7.10;99.90;;;;;;5077547;28;20196;-57
2022/01/25 01:58:25;;;;;;;2.47;2.27;;;7.10;99.90;;;;;;5070801;28;20555;-55
2022/01/25 02:00:54;;;;;;;2.43;2.23;;;7.10;99.90;;;;;;5075324;28;20658;-52
2022/01/25 02:03:22;;;;;;;2.50;2.30;;;7.10;99.90;;;;;;5081056;28;20617;-59
2022/01/25 02:05:49;;;;;;;5.20;2.83;;;7.10;99.90;;;;;;5066253;28;20566;-56
2022/01/25 02:08:16;;;;;;;5.53;2.90;;;7.20;99.90;;;;;;5075140;28;20195;-57
2022/01/25 02:10:43;;;;;;;4.93;3.00;;;7.20;99.90;;;;;;5087106;28;20718;-58
2022/01/25 02:13:12;;;;;;;2.77;2.57;;;7.20;99.90;;;;;;5081467;28;20566;-56
2022/01/25 02:15:44;;;;;;;7.23;3.50;;;7.20;99.90;;;;;;5086367;28;20198;-56
2022/01/25 02:23:46;;;;;;;5.53;3.33;;;7.10;99.90;;;;;;5083550;28;20196;-58
2022/01/25 02:26:14;;;;;;;5.50;4.20;;;7.10;99.90;;;;;;5086650;28;20600;-58
2022/01/25 02:28:43;;;;;;;9.07;3.97;;;7.10;99.90;;;;;;5084292;28;20667;-56
2022/01/25 02:31:12;;;;;;;7.60;4.53;;;7.10;99.90;;;;;;5082473;28;20536;-59
2022/01/25 02:33:40;;;;;;;10.20;4.43;;;7.10;99.90;;;;;;5085304;28;20198;-57
2022/01/25 02:36:11;;;;;;;7.33;5.03;;;7.00;99.90;;;;;;5081933;28;20230;-59
2022/01/25 02:38:39;;;;;;;10.10;4.70;;;6.90;99.90;;;;;;5084252;28;20235;-57
2022/01/25 02:41:06;;;;;;;8.40;4.47;;;6.90;99.90;;;;;;5076472;28;20207;-58
2022/01/25 02:43:35;;;;;;;9.03;4.53;;;6.90;99.90;;;;;;5085076;28;20203;-58
2022/01/25 02:48:29;;;;;;;4.97;4.20;;;6.80;99.90;;;;;;5082379;28;20278;-58
2022/01/25 02:49:08;;;;;;;5.97;3.93;;;6.90;99.90;;;;;;5077419;28;20208;-58
2022/01/25 02:51:39;;;;;;;8.30;5.07;;;6.90;99.90;;;;;;5082234;28;20616;-58
2022/01/25 02:54:08;;;;;;;8.33;4.97;;;6.90;99.90;;;;;;5079836;28;20256;-58
2022/01/25 02:56:36;;;;;;;9.23;5.40;;;6.80;99.90;;;;;;5082085;28;20658;-58
2022/01/25 02:59:04;;;;;;;12.40;5.30;;;6.80;99.90;;;;;;5079652;28;20520;-57
2022/01/25 03:01:32;;;;;;;7.57;4.57;;;6.70;99.90;;;;;;5079650;28;20209;-57
2022/01/25 03:03:59;;;;;;;7.33;4.60;;;6.70;99.90;;;;;;5078558;28;20252;-57
2022/01/25 03:06:27;;;;;;;5.20;3.27;;;6.70;99.90;;;;;;5071258;28;20202;-58
2022/01/25 03:08:56;;;;;;;6.60;4.37;;;6.70;99.90;;;;;;5085654;28;20202;-58
2022/01/25 03:11:24;;;;;;;6.30;4.27;;;6.70;99.90;;;;;;5087358;28;20208;-58
2022/01/25 03:13:54;;;;;;;5.50;3.80;;;6.70;99.90;;;;;;5084472;28;20522;-58
2022/01/25 03:16:29;;;;;;;4.70;3.50;;;6.70;99.90;;;;;;5073031;28;20401;-58
2022/01/25 03:18:58;;;;;;;4.90;3.77;;;6.70;99.90;;;;;;5084956;28;20234;-58
2022/01/25 03:21:37;;;;;;;3.10;2.80;;;6.70;99.90;;;;;;5085437;28;20203;-57
2022/01/25 03:24:07;;;;;;;5.47;3.33;;;6.80;99.90;;;;;;5083923;28;20194;-58
2022/01/25 03:26:35;;;;;;;2.50;2.30;;;6.90;99.90;;;;;;5082493;28;20676;-58
2022/01/25 03:29:03;;;;;;;3.40;2.60;;;6.90;99.90;;;;;;5066297;28;20210;-58
2022/01/25 03:31:30;;;;;;;3.77;2.50;;;6.90;99.90;;;;;;5080557;28;20419;-59
2022/01/25 03:33:58;;;;;;;3.23;2.57;;;6.90;99.90;;;;;;5063909;28;20229;-59
2022/01/25 03:36:25;;;;;;;3.20;2.50;;;6.90;99.90;;;;;;5079576;28;20212;-57
2022/01/25 03:38:52;;;;;;;3.83;2.90;;;6.90;99.90;;;;;;5081377;28;20237;-59
2022/01/25 03:41:23;;;;;;;4.23;3.23;;;6.90;99.90;;;;;;5079752;28;20237;-56
2022/01/25 03:43:54;;;;;;;5.70;3.53;;;6.90;99.90;;;;;;5067527;28;20202;-58
2022/01/25 03:46:24;;;;;;;5.30;3.53;;;6.90;99.90;;;;;;5078076;28;20378;-57
2022/01/25 03:51:36;;;;;;;2.87;2.33;;;6.90;99.90;;;;;;5073917;28;20190;-58
2022/01/25 03:54:04;;;;;;;2.93;2.70;;;6.90;99.90;;;;;;5080390;28;20678;-59
2022/01/25 03:56:33;;;;;;;2.40;2.00;;;6.90;99.90;;;;;;5078307;28;20226;-58
2022/01/25 03:59:00;;;;;;;5.40;2.70;;;6.90;99.90;;;;;;5080352;28;20190;-59
2022/01/25 04:01:27;;;;;;;2.77;2.10;;;6.90;99.90;;;;;;5075881;28;20226;-58
2022/01/25 04:03:59;;;;;;;2.27;2.07;;;7.00;99.90;;;;;;5077757;28;20205;-58
2022/01/25 04:06:30;;;;;;;2.83;2.40;;;7.00;99.90;;;;;;5067331;28;20196;-59
2022/01/25 04:08:58;;;;;;;2.23;2.03;;;7.00;99.90;;;;;;5082940;28;20295;-58
2022/01/25 04:11:25;;;;;;;1.93;1.83;;;7.00;99.90;;;;;;5089545;28;20281;-57
2022/01/25 04:13:56;;;;;;;3.20;2.60;;;7.00;99.90;;;;;;5088051;28;20553;-58
2022/01/25 04:16:28;;;;;;;2.00;1.90;;;7.00;99.90;;;;;;5089547;28;20274;-58
2022/01/25 04:19:03;;;;;;;2.47;2.27;;;7.00;99.90;;;;;;5084300;28;20202;-58
2022/01/25 04:24:42;;;;;;;3.07;2.57;;;7.10;99.90;;;;;;5086918;28;20559;-59
2022/01/25 04:27:22;;;;;;;2.13;1.60;;;7.10;99.90;;;;;;5072468;28;20311;-58
2022/01/25 04:29:52;;;;;;;2.30;2.10;;;7.10;99.90;;;;;;5072519;28;20290;-56
2022/01/25 04:32:19;;;;;;;1.67;1.57;;;7.10;99.90;;;;;;5065629;28;20194;-57
2022/01/25 04:35:07;;;;;;;1.70;1.60;;;7.10;99.90;;;;;;5071768;28;20295;-54
2022/01/25 04:48:56;;;;;;;2.27;1.70;;;7.20;99.90;;;;;;5077119;28;20264;-58
2022/01/25 04:54:22;;;;;;;1.60;1.50;;;7.20;99.90;;;;;;5049879;28;20700;-58
2022/01/25 04:56:57;;;;;;;2.00;1.50;;;7.20;99.90;;;;;;5077745;28;20198;-57
2022/01/25 04:59:29;;;;;;;1.60;1.50;;;7.20;99.90;;;;;;5066213;28;20195;-57
2022/01/25 05:02:03;;;;;;;2.47;1.93;;;7.20;99.90;;;;;;5065576;28;20195;-57
2022/01/25 05:04:36;;;;;;;2.13;1.93;;;7.20;99.90;;;;;;5075593;28;20758;-58
2022/01/25 05:07:08;;;;;;;1.60;1.50;;;7.20;99.90;;;;;;5060447;28;20196;-58
2022/01/25 05:09:36;;;;;;;1.60;1.50;;;7.20;99.90;;;;;;5084367;28;20222;-55
2022/01/25 05:12:05;;;;;;;2.90;2.60;;;7.20;99.90;;;;;;5084954;28;20201;-57
2022/01/25 05:14:35;;;;;;;2.60;2.00;;;7.20;99.90;;;;;;5084434;28;20665;-57
2022/01/25 05:17:07;;;;;;;2.70;2.20;;;7.20;99.90;;;;;;5085534;28;20658;-58
2022/01/25 05:22:25;;;;;;;1.90;1.60;;;7.20;99.90;;;;;;5088649;28;20563;-59
2022/01/25 05:24:53;;;;;;;4.37;2.40;;;7.30;99.90;;;;;;5084198;28;20257;-58
2022/01/25 05:27:22;;;;;;;1.70;1.60;;;7.30;99.90;;;;;;5080161;28;20228;-57
2022/01/25 05:29:49;;;;;;;2.27;2.07;;;7.30;99.90;;;;;;5086585;28;20197;-55
2022/01/25 05:32:18;;;;;;;2.50;2.30;;;7.30;99.90;;;;;;5083420;28;20259;-58
2022/01/25 05:34:45;;;;;;;1.67;1.57;;;7.30;99.90;;;;;;5079956;28;20191;-54
2022/01/25 05:37:12;;;;;;;2.43;1.73;;;7.30;99.90;;;;;;5077681;28;20239;-56
2022/01/25 05:39:40;;;;;;;2.17;1.97;;;7.30;99.90;;;;;;5093233;28;20198;-58
2022/01/25 05:42:30;;;;;;;4.00;2.40;;;7.30;99.90;;;;;;5078490;28;20695;-56
2022/01/25 05:45:10;;;;;;;2.33;1.67;;;7.30;99.90;;;;;;5102781;28;20219;-58
2022/01/25 05:47:41;;;;;;;1.60;1.50;;;7.20;99.90;;;;;;5077116;28;20658;-57
2022/01/25 05:50:09;;;;;;;1.60;1.50;;;7.20;99.90;;;;;;5077068;28;20218;-54
2022/01/25 05:52:36;;;;;;;2.20;1.90;;;7.30;99.90;;;;;;5080423;28;20222;-58
2022/01/25 05:55:04;;;;;;;1.63;1.53;;;7.20;99.90;;;;;;5076180;28;20660;-59
2022/01/25 05:57:31;;;;;;;1.40;1.30;;;7.30;99.90;;;;;;5078939;28;20653;-58
2022/01/25 05:59:59;;;;;;;1.60;1.50;;;7.20;99.90;;;;;;5079456;28;20201;-58
2022/01/25 06:02:30;;;;;;;2.00;1.50;;;7.30;99.90;;;;;;5076274;28;20216;-59
2022/01/25 06:04:58;;;;;;;1.60;1.50;;;7.30;99.90;;;;;;5077013;28;20214;-57
2022/01/25 06:07:26;;;;;;;1.30;1.20;;;7.30;99.90;;;;;;5083780;28;20226;-58
2022/01/25 06:09:54;;;;;;;1.10;1.10;;;7.30;99.90;;;;;;5085028;28;20191;-56
2022/01/25 06:12:21;;;;;;;1.20;1.10;;;7.30;99.90;;;;;;5072163;28;20193;-58
2022/01/25 06:14:48;;;;;;;1.40;1.30;;;7.40;99.90;;;;;;5076912;28;20238;-55
2022/01/25 06:17:15;;;;;;;2.50;1.70;;;7.40;99.90;;;;;;5069785;28;20602;-58
2022/01/25 06:19:43;;;;;;;1.53;1.40;;;7.40;99.90;;;;;;5070013;28;20312;-57
2022/01/25 06:22:12;;;;;;;2.77;1.60;;;7.40;99.90;;;;;;5087074;28;20228;-57
2022/01/25 06:24:39;;;;;;;1.27;1.17;;;7.40;99.90;;;;;;5084211;28;20227;-57
2022/01/25 06:27:07;;;;;;;1.57;1.20;;;7.40;99.90;;;;;;5087585;28;20639;-58
2022/01/25 06:29:34;;;;;;;2.30;1.70;;;7.40;99.90;;;;;;5080384;28;20294;-57
2022/01/25 06:32:01;;;;;;;1.50;1.20;;;7.40;99.90;;;;;;5087448;28;20196;-56
2022/01/25 06:34:28;;;;;;;2.27;1.57;;;7.50;99.90;;;;;;5078386;28;20202;-58
2022/01/25 06:36:56;;;;;;;1.60;1.50;;;7.40;99.90;;;;;;5084688;28;20239;-57
2022/01/25 06:39:24;;;;;;;1.70;1.60;;;7.40;99.90;;;;;;5078536;28;20544;-57
2022/01/25 06:41:51;;;;;;;1.63;1.50;;;7.40;99.90;;;;;;5083725;28;20632;-56
2022/01/25 06:44:18;;;;;;;1.60;1.50;;;7.40;99.90;;;;;;5094431;28;20224;-58
2022/01/25 06:46:46;;;;;;;2.03;1.80;;;7.40;99.90;;;;;;5083107;28;20750;-56
2022/01/25 06:49:13;;;;;;;2.80;2.17;;;7.40;99.90;;;;;;5077507;28;20635;-57
2022/01/25 06:51:40;;;;;;;2.20;1.40;;;7.40;99.90;;;;;;5078609;28;20273;-56
2022/01/25 06:54:09;;;;;;;2.00;1.70;;;7.40;99.90;;;;;;5074796;28;20547;-58
2022/01/25 06:56:38;;;;;;;2.07;1.80;;;7.40;99.90;;;;;;5080690;28;20207;-58
2022/01/25 06:59:05;;;;;;;3.23;2.10;;;7.40;99.90;;;;;;5075408;28;20200;-58
2022/01/25 07:01:32;;;;;;;1.57;1.47;;;7.40;99.90;;;;;;5079821;28;20313;-58
2022/01/25 07:03:59;;;;;;;1.77;1.67;;;7.40;99.90;;;;;;5068863;28;20200;-58
2022/01/25 07:06:26;;;;;;;1.70;1.60;;;7.40;99.90;;;;;;5077201;28;20610;-59
2022/01/25 07:08:54;;;;;;;1.63;1.53;;;7.40;99.90;;;;;;5082278;28;20251;-58
2022/01/25 07:11:21;;;;;;;2.40;1.80;;;7.40;99.90;;;;;;5086606;28;20203;-58
2022/01/25 07:13:50;;;;;;;1.50;1.40;;;7.40;99.90;;;;;;5078447;28;20282;-56
2022/01/25 07:16:17;;;;;;;1.80;1.30;;;7.40;99.90;;;;;;5077176;28;20628;-58
2022/01/25 07:18:44;;;;;;;1.40;1.30;;;7.40;99.90;;;;;;5087456;28;20203;-57
2022/01/25 07:21:11;;;;;;;1.23;1.20;;;7.50;99.90;;;;;;5084773;28;20220;-58
2022/01/25 07:23:38;;;;;;;3.23;1.93;;;7.50;99.90;;;;;;5086608;28;20204;-58
2022/01/25 07:26:06;;;;;;;3.20;2.10;;;7.50;99.90;;;;;;5082465;28;20196;-58
2022/01/25 07:28:33;;;;;;;4.63;2.60;;;7.50;99.90;;;;;;5084844;28;20196;-59
2022/01/25 07:31:02;;;;;;;2.70;2.43;;;7.50;99.90;;;;;;5082275;28;20625;-59
2022/01/25 07:33:30;;;;;;;3.10;2.23;;;7.50;99.90;;;;;;5082910;28;20571;-59
2022/01/25 07:35:57;;;;;;;3.70;2.40;;;7.40;99.90;;;;;;5079069;28;20554;-59
2022/01/25 07:38:24;;;;;;;2.47;2.00;;;7.50;99.90;;;;;;5084231;28;20274;-56
2022/01/25 07:40:51;;;;;;;1.87;1.77;;;7.40;99.90;;;;;;5075088;28;20209;-59
2022/01/25 07:43:18;;;;;;;1.70;1.60;;;7.50;99.90;;;;;;5083773;28;20185;-57
2022/01/25 07:45:51;;;;;;;2.17;1.97;;;7.50;99.90;;;;;;5079966;28;20638;-58
2022/01/25 07:48:21;;;;;;;3.17;2.30;;;7.50;99.90;;;;;;5087775;28;20213;-58
2022/01/25 07:50:48;;;;;;;3.30;2.27;;;7.50;99.90;;;;;;5081645;28;20200;-61
2022/01/25 07:53:15;;;;;;;3.47;2.17;;;7.50;99.90;;;;;;5086257;28;20188;-58
2022/01/25 07:55:43;;;;;;;2.53;2.13;;;7.50;99.90;;;;;;5079813;28;20201;-58
2022/01/25 07:58:10;;;;;;;1.77;1.60;;;7.60;99.90;;;;;;5078707;28;20249;-58
2022/01/25 08:00:37;;;;;;;1.43;1.33;;;7.60;99.90;;;;;;5081165;28;20200;-57
2022/01/25 08:03:04;;;;;;;3.43;2.13;;;7.60;99.90;;;;;;5084618;28;20536;-58
2022/01/25 08:05:33;;;;;;;2.77;2.13;;;7.60;99.90;;;;;;5077418;28;20659;-58
2022/01/25 08:08:01;;;;;;;2.47;1.63;;;7.60;99.90;;;;;;5082095;28;20208;-57
2022/01/25 08:10:28;;;;;;;1.53;1.43;;;7.70;99.90;;;;;;5091008;28;20192;-59
2022/01/25 08:12:55;;;;;;;1.50;1.40;;;7.70;99.90;;;;;;5080610;28;20234;-58
2022/01/25 08:15:24;;;;;;;5.50;2.40;;;7.70;99.90;;;;;;5090326;28;20204;-57
2022/01/25 08:17:51;;;;;;;3.37;2.10;;;7.70;99.90;;;;;;5080413;28;20220;-57
2022/01/25 08:20:19;;;;;;;2.37;2.10;;;7.70;99.90;;;;;;5088519;28;20249;-56
2022/01/25 08:22:47;;;;;;;2.27;2.07;;;7.70;99.90;;;;;;5083745;28;20213;-56
2022/01/25 08:25:15;;;;;;;1.70;1.60;;;7.70;99.90;;;;;;5088455;28;20204;-58
2022/01/25 08:27:42;;;;;;;1.30;1.20;;;7.80;99.90;;;;;;5085370;28;20208;-61
2022/01/25 08:30:10;;;;;;;4.30;2.10;;;7.80;99.90;;;;;;5088427;28;20196;-58
2022/01/25 08:32:37;;;;;;;1.83;1.73;;;7.80;99.90;;;;;;5064184;28;20637;-57
2022/01/25 08:35:05;;;;;;;2.23;1.90;;;7.80;99.90;;;;;;5086862;28;20249;-58
2022/01/25 08:37:32;;;;;;;4.97;2.57;;;7.90;99.90;;;;;;5080179;28;20232;-57
2022/01/25 08:40:02;;;;;;;2.83;1.83;;;7.90;99.90;;;;;;5087166;28;20200;-57
2022/01/25 08:42:29;;;;;;;2.73;2.23;;;7.90;99.90;;;;;;5083030;28;20219;-57
2022/01/25 08:44:56;;;;;;;3.77;2.37;;;7.90;99.90;;;;;;5085583;28;20201;-56
2022/01/25 08:47:26;;;;;;;1.93;1.73;;;7.90;99.90;;;;;;5077462;28;20233;-58
2022/01/25 08:49:55;;;;;;;2.00;1.70;;;7.90;99.90;;;;;;5074481;28;20208;-59
2022/01/25 08:52:22;;;;;;;1.57;1.47;;;7.90;99.90;;;;;;5077199;28;20599;-57
2022/01/25 08:54:49;;;;;;;3.27;1.80;;;8.00;99.90;;;;;;5085048;28;20196;-58
2022/01/25 08:57:18;;;;;;;3.17;1.70;;;8.10;99.90;;;;;;5077043;28;20220;-59
2022/01/25 08:59:45;;;;;;;1.73;1.60;;;8.20;99.90;;;;;;5084070;28;20199;-58
2022/01/25 09:02:12;;;;;;;2.17;1.60;;;8.30;99.90;;;;;;5079066;28;20224;-58
2022/01/25 09:04:39;;;;;;;2.40;1.80;;;8.40;99.90;;;;;;5083256;28;20282;-59
2022/01/25 09:07:07;;;;;;;2.07;1.67;;;8.40;99.90;;;;;;5077226;28;20197;-59
2022/01/25 09:09:34;;;;;;;1.47;1.37;;;8.40;99.90;;;;;;5083409;28;20199;-58
2022/01/25 09:12:01;;;;;;;2.27;1.33;;;8.40;99.90;;;;;;5085813;28;20277;-59
2022/01/25 09:14:30;;;;;;;1.53;1.43;;;8.40;99.90;;;;;;5083600;28;20196;-59
2022/01/25 09:16:57;;;;;;;2.17;1.80;;;8.40;99.90;;;;;;5089419;28;20184;-58
2022/01/25 09:19:24;;;;;;;2.50;1.60;;;8.40;99.90;;;;;;5083042;28;20205;-57
2022/01/25 09:21:51;;;;;;;1.97;1.73;;;8.40;99.90;;;;;;5085659;28;20308;-58
2022/01/25 09:24:18;;;;;;;2.27;1.60;;;8.40;99.90;;;;;;5078126;28;20205;-56
2022/01/25 09:26:45;;;;;;;1.93;1.40;;;8.40;99.90;;;;;;5087721;28;20249;-55
2022/01/25 09:29:12;;;;;;;1.90;1.80;;;8.50;99.90;;;;;;5079511;28;21002;-55
2022/01/25 09:31:41;;;;;;;3.20;2.17;;;8.60;99.90;;;;;;5086804;28;20597;-57
2022/01/25 09:34:08;;;;;;;4.20;2.33;;;8.60;99.90;;;;;;5077264;28;20186;-58
2022/01/25 09:36:35;;;;;;;5.13;2.30;;;8.60;99.90;;;;;;5083795;28;20299;-56
2022/01/25 09:39:03;;;;;;;2.67;1.60;;;8.50;99.90;;;;;;5077834;28;20194;-57
2022/01/25 09:41:30;;;;;;;2.07;1.77;;;8.50;99.90;;;;;;5074713;28;20220;-58
2022/01/25 09:43:57;;;;;;;2.70;2.07;;;8.50;99.90;;;;;;5075955;28;20189;-57
2022/01/25 09:46:24;;;;;;;1.60;1.50;;;8.40;99.90;;;;;;5076610;28;20195;-57
2022/01/25 09:48:53;;;;;;;2.27;1.67;;;8.40;99.90;;;;;;5077481;28;20197;-57
2022/01/25 09:51:21;;;;;;;3.17;2.00;;;8.50;99.90;;;;;;5082158;28;20538;-55
2022/01/25 09:53:48;;;;;;;2.43;1.50;;;8.50;99.90;;;;;;5068838;28;20225;-55
2022/01/25 09:56:15;;;;;;;1.40;1.30;;;8.40;99.90;;;;;;5072694;28;20196;-56
2022/01/25 09:58:44;;;;;;;1.53;1.30;;;8.50;99.90;;;;;;5065409;28;20254;-58
2022/01/25 10:01:12;;;;;;;2.63;1.80;;;8.50;99.90;;;;;;5078808;28;20204;-58
2022/01/25 10:03:41;;;;;;;1.90;1.60;;;8.50;99.90;;;;;;5074168;28;20200;-58
2022/01/25 10:06:16;;;;;;;3.73;1.90;;;8.50;99.90;;;;;;5071871;28;20193;-56
2022/01/25 10:08:44;;;;;;;2.83;1.80;;;8.60;99.90;;;;;;5064710;28;20278;-58
2022/01/25 10:11:14;;;;;;;3.03;2.07;;;8.70;99.90;;;;;;5085032;28;20563;-56
2022/01/25 10:13:43;;;;;;;3.53;2.00;;;8.70;99.90;;;;;;5078814;28;20599;-58
2022/01/25 10:16:11;;;;;;;2.53;1.70;;;8.60;99.90;;;;;;5078843;28;20681;-56
2022/01/25 10:18:41;;;;;;;1.80;1.60;;;8.60;99.90;;;;;;5086706;28;20587;-58
2022/01/25 10:21:14;;;;;;;1.80;1.43;;;8.60;99.90;;;;;;5083551;28;20301;-57
2022/01/25 10:23:58;;;;;;;2.53;1.40;;;8.60;99.90;;;;;;5086701;28;20211;-58
2022/01/25 10:26:25;;;;;;;1.40;1.30;;;8.60;99.90;;;;;;5079104;28;20299;-59
2022/01/25 10:28:53;;;;;;;1.90;1.80;;;8.70;99.90;;;;;;5084939;28;20279;-58
2022/01/25 10:31:20;;;;;;;3.10;2.27;;;8.80;99.90;;;;;;5076495;28;20226;-58
2022/01/25 10:33:53;;;;;;;1.93;1.70;;;8.90;99.90;;;;;;5082842;28;20228;-57
2022/01/25 10:36:24;;;;;;;2.00;1.67;;;8.90;99.90;;;;;;5082181;28;20196;-57
2022/01/25 10:38:55;;;;;;;2.87;1.73;;;9.00;99.90;;;;;;5080462;28;20228;-56
2022/01/25 10:41:25;;;;;;;2.43;1.93;;;9.10;99.90;;;;;;5077521;28;20295;-57
2022/01/25 10:43:54;;;;;;;2.37;1.70;;;9.10;99.90;;;;;;5076558;28;20197;-58
2022/01/25 10:46:25;;;;;;;3.33;1.77;;;9.20;99.90;;;;;;5079646;28;20270;-58
2022/01/25 10:48:56;;;;;;;1.97;1.73;;;9.20;99.90;;;;;;5073062;28;20186;-59
2022/01/25 10:51:27;;;;;;;2.23;1.80;;;9.20;99.90;;;;;;5076841;28;20540;-58
2022/01/25 10:54:00;;;;;;;3.47;1.40;;;9.20;99.90;;;;;;5067468;28;20573;-58
2022/01/25 10:56:33;;;;;;;1.40;1.30;;;9.20;99.90;;;;;;5076908;28;20204;-58
2022/01/25 10:59:02;;;;;;;3.20;1.53;;;9.30;99.90;;;;;;5064673;28;20243;-59
2022/01/25 11:01:34;;;;;;;2.90;1.70;;;9.40;99.90;;;;;;5074923;28;20572;-58
2022/01/25 11:04:07;;;;;;;2.17;1.57;;;9.50;99.90;;;;;;5072736;28;20287;-60
2022/01/25 11:06:36;;;;;;;2.63;1.60;;;9.50;99.90;;;;;;5064936;28;20633;-57
2022/01/25 11:09:06;;;;;;;3.17;1.60;;;9.60;99.90;;;;;;5069403;28;20395;-57
2022/01/25 11:11:38;;;;;;;3.10;1.53;;;9.50;99.90;;;;;;5086235;28;20205;-58
2022/01/25 11:16:53;;;;;;;1.20;1.10;;;9.60;99.90;;;;;;5087411;28;20645;-58
2022/01/25 11:19:21;;;;;;;1.00;1.00;;;9.50;99.90;;;;;;5074020;28;20187;-58
2022/01/25 11:21:50;;;;;;;1.27;1.17;;;9.50;99.90;;;;;;5068199;28;20732;-59
2022/01/25 11:24:20;;;;;;;2.00;1.37;;;9.50;99.90;;;;;;5085515;28;20196;-58
2022/01/25 11:26:48;;;;;;;2.70;1.80;;;9.50;99.90;;;;;;5065755;28;20698;-57
2022/01/25 11:29:16;;;;;;;1.53;1.30;;;9.50;99.90;;;;;;5084955;28;20209;-58
2022/01/25 11:31:49;;;;;;;2.17;1.67;;;9.40;99.90;;;;;;5090632;28;20280;-57
2022/01/25 11:34:18;;;;;;;1.73;1.50;;;9.40;99.90;;;;;;5070436;28;20553;-57
2022/01/25 11:36:51;;;;;;;2.90;1.60;;;9.30;99.90;;;;;;5089528;28;20200;-57
2022/01/25 11:39:23;;;;;;;1.87;1.67;;;9.30;99.90;;;;;;5073200;28;20203;-57
2022/01/25 11:41:51;;;;;;;4.03;1.90;;;9.30;99.90;;;;;;5088221;28;20275;-58
2022/01/25 11:44:26;;;;;;;2.97;1.57;;;9.40;99.90;;;;;;5082842;28;20205;-58
2022/01/25 11:46:57;;;;;;;2.33;1.87;;;9.50;99.90;;;;;;5075468;28;20187;-55
2022/01/25 11:49:26;;;;;;;1.43;1.10;;;9.50;99.90;;;;;;5081035;28;20239;-55
2022/01/25 11:52:15;;;;;;;1.70;1.60;;;9.50;99.90;;;;;;5080679;28;20577;-57
2022/01/25 11:54:44;;;;;;;3.73;2.07;;;9.50;99.90;;;;;;5081851;28;20209;-57
2022/01/25 11:57:14;;;;;;;2.53;1.90;;;9.50;99.90;;;;;;5079456;28;20243;-57
2022/01/25 11:59:42;;;;;;;2.37;1.77;;;9.40;99.90;;;;;;5070669;28;20209;-57
2022/01/25 12:02:10;;;;;;;6.43;2.33;;;9.50;99.90;;;;;;5079051;28;20237;-59
2022/01/25 12:04:38;;;;;;;1.60;1.50;;;9.40;99.90;;;;;;5075680;28;20228;-58
2022/01/25 12:07:24;;;;;;;2.53;2.07;;;9.40;99.90;;;;;;5085205;28;20610;-59
2022/01/25 12:10:03;;;;;;;1.30;1.13;;;9.30;99.90;;;;;;5082506;28;20214;-58
2022/01/25 12:12:32;;;;;;;1.47;1.07;;;9.20;99.90;;;;;;5084093;28;20735;-58
2022/01/25 12:15:13;;;;;;;0.70;0.70;;;9.20;99.90;;;;;;5089065;28;20197;-56
2022/01/25 12:17:40;;;;;;;1.27;1.17;;;9.20;99.90;;;;;;5072445;28;20307;-58
2022/01/25 12:20:22;;;;;;;1.00;0.80;;;9.20;99.90;;;;;;5084775;28;20250;-58
2022/01/25 12:23:06;;;;;;;1.13;0.80;;;9.10;99.90;;;;;;5082930;28;20210;-58
2022/01/25 12:25:48;;;;;;;0.60;0.60;;;9.10;99.90;;;;;;5087637;28;20185;-57
2022/01/25 12:28:25;;;;;;;1.20;1.10;;;9.10;99.90;;;;;;5084537;28;20241;-58
2022/01/25 12:30:52;;;;;;;2.50;1.33;;;9.10;99.90;;;;;;5084162;28;20553;-59
2022/01/25 12:33:24;;;;;;;1.30;1.20;;;9.10;99.90;;;;;;5085089;28;20200;-57
2022/01/25 12:35:54;;;;;;;1.30;1.20;;;9.10;99.90;;;;;;5079565;28;20286;-58
2022/01/25 12:38:23;;;;;;;1.70;1.30;;;9.00;99.90;;;;;;5084380;28;20786;-57
2022/01/25 12:41:00;;;;;;;1.67;1.23;;;9.00;99.90;;;;;;5080122;28;20277;-58
2022/01/25 12:43:33;;;;;;;2.00;1.80;;;8.90;99.90;;;;;;5069417;28;20223;-60
2022/01/25 12:46:03;;;;;;;1.53;1.43;;;8.90;99.90;;;;;;5068526;28;20191;-58
2022/01/25 12:48:33;;;;;;;4.57;2.20;;;8.90;99.90;;;;;;5074890;28;20200;-56
2022/01/25 12:51:04;;;;;;;2.97;2.00;;;8.90;99.90;;;;;;5075852;28;20198;-58
2022/01/25 12:53:33;;;;;;;1.77;1.67;;;8.90;99.90;;;;;;5078380;28;20182;-58
2022/01/25 12:56:05;;;;;;;3.13;1.87;;;9.00;99.90;;;;;;5076476;28;20263;-58
2022/01/25 12:58:33;;;;;;;2.83;1.80;;;9.00;99.90;;;;;;5073682;28;20224;-60
2022/01/25 13:01:05;;;;;;;5.67;2.57;;;9.10;99.90;;;;;;5074639;28;20196;-56
2022/01/25 13:03:35;;;;;;;3.10;2.03;;;9.20;99.90;;;;;;5067220;28;20212;-57
2022/01/25 13:06:09;;;;;;;4.07;2.00;;;9.20;99.90;;;;;;5068690;28;20209;-57
2022/01/25 13:08:44;;;;;;;3.60;1.93;;;9.20;99.90;;;;;;5064591;28;20187;-58
2022/01/25 13:11:26;;;;;;;2.93;1.90;;;9.30;99.90;;;;;;5089382;28;20210;-58
2022/01/25 13:14:02;;;;;;;1.93;1.43;;;9.20;99.90;;;;;;5079273;28;20181;-58
2022/01/25 13:16:58;;;;;;;4.07;1.60;;;9.30;99.90;;;;;;5074160;28;20212;-57
2022/01/25 13:19:27;;;;;;;3.87;1.87;;;9.30;99.90;;;;;;5081174;28;20215;-58
2022/01/25 13:21:57;;;;;;;1.87;1.40;;;9.30;99.90;;;;;;5066790;28;20266;-57
2022/01/25 13:24:29;;;;;;;1.77;1.20;;;9.30;99.90;;;;;;5082463;28;20216;-56
2022/01/25 13:27:01;;;;;;;3.20;1.50;;;9.30;99.90;;;;;;5086705;28;20671;-57
2022/01/25 13:32:21;;;;;;;1.80;1.27;;;9.20;99.90;;;;;;5084955;28;20200;-58
2022/01/25 13:35:19;;;;;;;6.90;1.73;;;9.20;99.90;;;;;;5083574;28;20190;-57
2022/01/25 13:38:04;;;;;;;3.07;1.70;;;9.10;99.90;;;;;;5080912;28;20768;-58
2022/01/25 13:40:38;;;;;;;4.23;2.17;;;9.20;99.90;;;;;;5070843;28;20689;-58
2022/01/25 13:43:31;;;;;;;2.00;1.80;;;9.10;99.90;;;;;;5081159;28;20216;-59
2022/01/25 13:46:03;;;;;;;2.20;1.40;;;9.10;99.90;;;;;;5073122;28;20216;-58
2022/01/25 13:48:31;;;;;;;2.47;1.97;;;9.10;99.90;;;;;;5081876;28;20189;-58
2022/01/25 13:51:00;;;;;;;1.90;1.37;;;9.10;99.90;;;;;;5071900;28;20585;-58
2022/01/25 13:53:29;;;;;;;1.43;1.33;;;9.10;99.90;;;;;;5080748;28;20201;-58
2022/01/25 13:55:59;;;;;;;1.33;1.10;;;9.00;99.90;;;;;;5076555;28;20228;-57
2022/01/25 13:58:31;;;;;;;0.90;0.90;;;9.10;99.90;;;;;;5078254;28;20225;-58
2022/01/25 14:00:59;;;;;;;1.17;1.00;;;9.10;99.90;;;;;;5077246;28;20213;-58
2022/01/25 14:03:29;;;;;;;2.90;1.53;;;9.10;99.90;;;;;;5076169;28;20220;-58
2022/01/25 14:05:56;;;;;;;3.90;1.90;;;9.00;99.90;;;;;;5076347;28;20246;-57
2022/01/25 14:08:34;;;;;;;2.50;1.90;;;9.00;99.90;;;;;;5075535;28;20283;-59
2022/01/25 14:11:05;;;;;;;2.97;2.00;;;9.00;99.90;;;;;;5080551;28;20663;-58
2022/01/25 14:22:02;;;;;;;1.10;1.00;;;8.80;99.90;;;;;;5083310;28;20187;-58
2022/01/25 14:24:30;;;;;;;1.90;1.00;;;8.70;99.90;;;;;;5068304;28;20292;-57
2022/01/25 14:26:58;;;;;;;0.77;0.77;;;8.70;99.90;;;;;;5077264;28;20728;-58
2022/01/25 14:29:27;;;;;;;2.93;1.20;;;8.60;99.90;;;;;;5076045;28;20298;-59
2022/01/25 14:31:54;;;;;;;1.63;1.37;;;8.60;99.90;;;;;;5085465;28;20252;-58
2022/01/25 14:34:23;;;;;;;2.60;1.43;;;8.50;99.90;;;;;;5074081;28;20685;-57
2022/01/25 14:36:52;;;;;;;1.47;1.07;;;8.50;99.90;;;;;;5083093;28;20671;-58
2022/01/25 14:39:19;;;;;;;1.10;1.00;;;8.40;99.90;;;;;;5078209;28;20197;-58